Time;durP1;ratioP1;P1;durP2;ratioP2;P2;SDS_P1;SDS_P2;PMS_P1;PMS_P2;Temp;Humidity;BMP_temperature;BMP_pressure;BME280_temperature;BME280_humidity;BME280_pressure;Samples;Min_cycle;Max_cycle;Signal;HPM_P1;HPM_P2
2022/09/23 00:01:08;;;;;;;4.88;1.90;;;6.30;99.90;;;;;;4993332;28;20125;-73
2022/09/23 00:03:37;;;;;;;3.88;2.13;;;6.30;99.90;;;;;;4995036;28;20395;-74
2022/09/23 00:06:15;;;;;;;3.72;2.30;;;6.20;99.90;;;;;;4993544;28;20042;-71
2022/09/23 00:08:41;;;;;;;6.05;1.90;;;6.20;99.90;;;;;;4994348;28;20031;-73
2022/09/23 00:11:10;;;;;;;4.05;2.17;;;6.20;99.90;;;;;;4986302;28;20050;-75
2022/09/23 00:13:39;;;;;;;6.25;2.00;;;6.20;99.90;;;;;;4994785;28;20037;-72
2022/09/23 00:16:27;;;;;;;2.83;1.98;;;6.10;99.90;;;;;;4994327;28;20037;-72
2022/09/23 00:18:54;;;;;;;4.43;2.45;;;6.10;99.90;;;;;;4993959;28;20034;-71
2022/09/23 00:21:21;;;;;;;4.22;2.90;;;6.00;99.90;;;;;;4991998;28;20394;-72
2022/09/23 00:23:48;;;;;;;4.10;2.38;;;6.00;99.90;;;;;;4992986;28;20047;-72
2022/09/23 00:26:15;;;;;;;6.03;2.92;;;6.00;99.90;;;;;;4993501;28;20061;-72
2022/09/23 00:28:42;;;;;;;4.25;2.00;;;6.00;99.90;;;;;;4994181;28;20494;-72
2022/09/23 00:31:12;;;;;;;7.10;3.67;;;5.90;99.90;;;;;;4992102;28;20038;-78
2022/09/23 00:33:39;;;;;;;3.37;2.10;;;5.90;99.90;;;;;;4993699;28;20471;-72
2022/09/23 00:36:09;;;;;;;6.80;2.58;;;6.00;99.90;;;;;;4993629;28;20034;-73
2022/09/23 00:38:36;;;;;;;4.20;2.15;;;5.90;99.90;;;;;;4993553;28;20037;-73
2022/09/23 00:41:03;;;;;;;3.70;2.03;;;5.90;99.90;;;;;;4992154;28;20042;-73
2022/09/23 00:43:45;;;;;;;3.63;2.13;;;5.80;99.90;;;;;;4982436;28;20042;-72
2022/09/23 00:46:25;;;;;;;4.05;2.42;;;5.90;99.90;;;;;;4993148;28;20034;-73
2022/09/23 00:49:15;;;;;;;5.22;2.25;;;5.80;99.90;;;;;;4993646;28;20053;-73
2022/09/23 00:51:53;;;;;;;3.45;2.40;;;5.90;99.90;;;;;;4992686;28;20058;-73
2022/09/23 00:54:21;;;;;;;7.10;2.65;;;5.90;99.90;;;;;;4991665;28;20379;-72
2022/09/23 00:56:47;;;;;;;3.83;2.83;;;5.90;99.90;;;;;;4993201;28;20037;-72
2022/09/23 00:59:13;;;;;;;2.90;2.00;;;5.80;99.90;;;;;;4992621;28;20479;-73
2022/09/23 01:01:41;;;;;;;2.80;2.05;;;5.90;99.90;;;;;;4993095;28;20057;-73
2022/09/23 01:04:07;;;;;;;7.45;2.25;;;5.90;99.90;;;;;;4986728;28;20034;-72
2022/09/23 01:06:33;;;;;;;2.95;2.20;;;6.00;99.90;;;;;;4989439;28;20037;-72
2022/09/23 01:08:59;;;;;;;4.25;2.80;;;5.80;99.90;;;;;;4985913;28;20041;-72
2022/09/23 01:11:47;;;;;;;3.20;2.13;;;5.60;99.90;;;;;;4985213;28;20039;-72
2022/09/23 01:14:51;;;;;;;4.40;2.55;;;5.50;99.90;;;;;;4988569;28;20033;-76
2022/09/23 01:17:47;;;;;;;3.38;2.33;;;5.40;99.90;;;;;;4992242;28;20094;-73
2022/09/23 01:20:51;;;;;;;6.53;2.40;;;5.40;99.90;;;;;;4985277;28;20049;-73
2022/09/23 01:23:36;;;;;;;3.78;2.65;;;5.30;99.90;;;;;;4989562;28;20050;-72
2022/09/23 01:26:38;;;;;;;9.02;2.83;;;5.40;99.90;;;;;;4991294;28;20030;-72
2022/09/23 01:29:33;;;;;;;4.32;2.47;;;5.40;99.90;;;;;;4992282;28;20050;-72
2022/09/23 01:32:31;;;;;;;4.50;2.78;;;5.40;99.90;;;;;;4992491;28;20038;-72
2022/09/23 01:35:11;;;;;;;5.70;2.75;;;5.40;99.90;;;;;;4959803;28;20046;-72
2022/09/23 01:38:18;;;;;;;3.73;2.53;;;5.50;99.90;;;;;;4992675;28;20035;-72
2022/09/23 01:40:59;;;;;;;4.70;2.90;;;5.50;99.90;;;;;;4979264;28;20384;-72
2022/09/23 01:43:40;;;;;;;4.65;2.80;;;5.40;99.90;;;;;;4984548;28;20404;-73
2022/09/23 01:46:13;;;;;;;4.93;2.60;;;5.40;99.90;;;;;;4986752;28;20333;-72
2022/09/23 01:48:48;;;;;;;3.92;2.25;;;5.40;99.90;;;;;;4992315;28;20037;-72
2022/09/23 01:51:30;;;;;;;4.68;2.88;;;5.30;99.90;;;;;;4992217;28;20046;-72
2022/09/23 01:54:22;;;;;;;4.22;3.08;;;5.40;99.90;;;;;;4992609;28;20030;-72
2022/09/23 01:56:55;;;;;;;4.45;3.13;;;5.40;99.90;;;;;;4954181;28;20493;-72
2022/09/23 01:59:30;;;;;;;4.80;2.83;;;5.40;99.90;;;;;;4974368;28;20042;-73
2022/09/23 02:02:04;;;;;;;4.65;2.60;;;5.50;99.90;;;;;;4992521;28;20051;-73
2022/09/23 02:04:44;;;;;;;4.70;2.80;;;5.40;99.90;;;;;;4989547;28;20061;-73
2022/09/23 02:07:35;;;;;;;4.28;2.90;;;5.30;99.90;;;;;;4992660;28;20035;-72
2022/09/23 02:10:27;;;;;;;4.20;2.75;;;5.20;99.90;;;;;;4992362;28;20498;-72
2022/09/23 02:13:00;;;;;;;5.35;2.95;;;5.10;99.90;;;;;;4992270;28;20050;-72
2022/09/23 02:15:34;;;;;;;5.10;2.70;;;5.10;99.90;;;;;;4990253;28;20490;-73
2022/09/23 02:18:07;;;;;;;4.07;2.85;;;5.10;99.90;;;;;;4991225;28;20046;-73
2022/09/23 02:20:37;;;;;;;7.82;3.40;;;5.10;99.90;;;;;;4991828;28;20106;-72
2022/09/23 02:23:21;;;;;;;6.53;3.63;;;5.20;99.90;;;;;;4992343;28;20395;-72
2022/09/23 02:26:11;;;;;;;4.72;3.20;;;5.10;99.90;;;;;;4986688;28;20041;-72
2022/09/23 02:28:54;;;;;;;7.43;3.45;;;5.00;99.90;;;;;;4995918;28;20054;-72
2022/09/23 02:31:29;;;;;;;6.68;3.13;;;5.00;99.90;;;;;;4996078;28;20364;-72
2022/09/23 02:34:00;;;;;;;4.32;3.22;;;5.00;99.90;;;;;;4990557;28;20038;-73
2022/09/23 02:36:30;;;;;;;;;;;5.00;99.90;;;;;;4993942;28;20368;-72
2022/09/23 02:39:01;;;;;;;5.35;3.13;;;5.00;99.90;;;;;;4996105;28;20373;-73
2022/09/23 02:41:35;;;;;;;5.75;3.47;;;4.90;99.90;;;;;;4994831;28;20118;-72
2022/09/23 02:44:14;;;;;;;5.07;3.17;;;4.90;99.90;;;;;;4995765;28;20034;-72
2022/09/23 02:46:44;;;;;;;5.70;3.22;;;4.90;99.90;;;;;;4994620;28;20034;-72
2022/09/23 02:49:16;;;;;;;5.75;3.13;;;4.90;99.90;;;;;;4996062;28;20041;-72
2022/09/23 02:51:43;;;;;;;9.25;3.72;;;5.00;99.90;;;;;;4995813;28;20467;-72
2022/09/23 02:54:15;;;;;;;5.68;3.22;;;5.00;99.90;;;;;;4995165;28;20401;-74
2022/09/23 02:59:24;;;;;;;6.18;3.50;;;4.90;99.90;;;;;;3443226;23;21164;-79
2022/09/23 03:02:12;;;;;;;6.28;3.55;;;4.80;99.90;;;;;;4995670;28;20050;-79
2022/09/23 03:05:30;;;;;;;5.47;4.18;;;4.80;99.90;;;;;;4994837;28;20425;-80
2022/09/23 03:08:17;;;;;;;4.97;3.47;;;4.70;99.90;;;;;;4953766;29;20050;-80
2022/09/23 03:11:06;;;;;;;6.63;3.72;;;4.80;99.90;;;;;;4976644;28;20054;-79
2022/09/23 03:13:41;;;;;;;5.45;3.33;;;4.80;99.90;;;;;;4977296;28;20042;-79
2022/09/23 03:16:29;;;;;;;5.05;3.60;;;4.70;99.90;;;;;;4976700;28;20391;-79
2022/09/23 03:19:16;;;;;;;7.80;3.72;;;4.70;99.90;;;;;;4987114;28;20042;-79
2022/09/23 03:21:59;;;;;;;7.10;3.47;;;4.70;99.90;;;;;;4918768;28;20498;-79
2022/09/23 03:24:31;;;;;;;7.35;3.65;;;4.70;99.90;;;;;;4975932;28;20047;-79
2022/09/23 03:27:02;;;;;;;8.02;4.25;;;4.70;99.90;;;;;;4995301;28;20038;-79
2022/09/23 03:29:31;;;;;;;5.63;3.83;;;4.70;99.90;;;;;;4977159;28;20035;-79
2022/09/23 03:31:58;;;;;;;5.90;3.70;;;4.70;99.90;;;;;;4994471;28;20057;-80
2022/09/23 03:34:32;;;;;;;6.35;4.13;;;4.70;99.90;;;;;;4993733;28;20054;-79
2022/09/23 03:37:07;;;;;;;5.53;3.47;;;4.60;99.90;;;;;;4995325;28;20030;-79
2022/09/23 03:39:42;;;;;;;6.97;3.97;;;4.70;99.90;;;;;;4994262;28;20057;-80
2022/09/23 03:42:20;;;;;;;8.00;3.95;;;4.70;99.90;;;;;;4976362;28;20066;-79
2022/09/23 03:44:47;;;;;;;7.65;3.83;;;4.70;99.90;;;;;;4975901;28;20277;-78
2022/09/23 03:47:15;;;;;;;5.80;4.10;;;4.70;99.90;;;;;;4994961;28;20070;-79
2022/09/23 03:49:47;;;;;;;7.72;4.38;;;4.70;99.90;;;;;;4976198;28;20037;-80
2022/09/23 03:52:14;;;;;;;6.40;4.35;;;4.70;99.90;;;;;;4994625;28;20050;-79
2022/09/23 03:54:41;;;;;;;7.20;4.00;;;4.70;99.90;;;;;;4992794;28;20046;-80
2022/09/23 03:57:08;;;;;;;7.82;4.00;;;4.70;99.90;;;;;;4994503;28;20034;-79
2022/09/23 03:59:34;;;;;;;9.25;4.47;;;4.60;99.90;;;;;;4993744;28;20026;-79
2022/09/23 04:02:01;;;;;;;6.57;4.00;;;4.50;99.90;;;;;;4976197;28;20049;-79
2022/09/23 04:04:28;;;;;;;6.47;4.28;;;4.40;99.90;;;;;;4976232;28;20035;-79
2022/09/23 04:06:55;;;;;;;7.00;4.20;;;4.40;99.90;;;;;;4994695;28;20034;-80
2022/09/23 04:09:22;;;;;;;6.45;3.92;;;4.40;99.90;;;;;;4994479;28;20045;-79
2022/09/23 04:11:52;;;;;;;10.55;4.97;;;4.50;99.90;;;;;;4994039;28;20390;-80
2022/09/23 04:14:19;;;;;;;8.13;4.18;;;4.50;99.90;;;;;;4993266;28;20038;-79
2022/09/23 04:16:46;;;;;;;6.32;3.97;;;4.60;99.90;;;;;;4997933;28;20031;-79
2022/09/23 04:19:13;;;;;;;8.20;5.57;;;4.60;99.90;;;;;;4999236;28;20030;-80
2022/09/23 04:21:40;;;;;;;10.00;4.15;;;4.50;99.90;;;;;;4983758;28;20038;-80
2022/09/23 04:24:08;;;;;;;7.68;4.85;;;4.60;99.90;;;;;;5000262;28;20038;-80
2022/09/23 04:26:34;;;;;;;6.05;4.82;;;4.60;99.90;;;;;;4999296;28;20024;-81
2022/09/23 04:29:03;;;;;;;7.97;4.20;;;4.70;99.90;;;;;;4993976;28;20027;-79
2022/09/23 04:31:30;;;;;;;6.97;4.53;;;4.70;99.90;;;;;;4990089;28;20046;-80
2022/09/23 04:33:57;;;;;;;9.82;4.68;;;4.60;99.90;;;;;;4994150;28;20050;-79
2022/09/23 04:36:24;;;;;;;7.32;4.50;;;4.50;99.90;;;;;;4992773;28;20127;-78
2022/09/23 04:38:50;;;;;;;7.47;4.32;;;4.50;99.90;;;;;;4993279;28;20039;-78
2022/09/23 04:41:18;;;;;;;8.82;5.18;;;4.60;99.90;;;;;;4975925;28;20057;-78
2022/09/23 04:43:44;;;;;;;7.28;5.18;;;4.70;99.90;;;;;;4993158;28;20415;-78
2022/09/23 04:46:13;;;;;;;8.88;4.75;;;4.70;99.90;;;;;;4992034;28;20379;-78
2022/09/23 04:48:40;;;;;;;11.18;6.05;;;4.60;99.90;;;;;;4989153;28;20037;-78
2022/09/23 04:51:12;;;;;;;9.10;5.50;;;4.60;99.90;;;;;;4993430;28;20426;-78
2022/09/23 04:53:40;;;;;;;8.38;5.32;;;4.70;99.90;;;;;;4987133;28;20030;-78
2022/09/23 04:56:10;;;;;;;7.38;4.93;;;4.70;99.90;;;;;;4975194;28;20042;-77
2022/09/23 04:58:36;;;;;;;7.32;4.47;;;4.70;99.90;;;;;;4992141;28;20479;-76
2022/09/23 05:01:13;;;;;;;7.35;4.65;;;4.60;99.90;;;;;;4992998;28;20402;-76
2022/09/23 05:03:39;;;;;;;7.15;4.72;;;4.50;99.90;;;;;;4992869;28;20030;-78
2022/09/23 05:06:06;;;;;;;9.35;5.60;;;4.50;99.90;;;;;;4991846;28;20030;-79
2022/09/23 05:08:33;;;;;;;6.95;4.78;;;4.60;99.90;;;;;;4992469;28;20447;-79
2022/09/23 05:11:01;;;;;;;8.48;5.18;;;4.70;99.90;;;;;;4974793;28;20433;-79
2022/09/23 05:13:27;;;;;;;8.88;4.60;;;4.70;99.90;;;;;;4975596;28;20043;-79
2022/09/23 05:16:05;;;;;;;7.32;5.10;;;4.70;99.90;;;;;;4991653;28;20037;-79
2022/09/23 05:18:32;;;;;;;6.68;4.78;;;4.80;99.90;;;;;;4975467;28;20467;-79
2022/09/23 05:20:59;;;;;;;9.30;4.70;;;4.80;99.90;;;;;;4975706;28;20045;-76
2022/09/23 05:23:26;;;;;;;11.38;4.78;;;4.90;99.90;;;;;;4993438;28;20030;-79
2022/09/23 05:26:01;;;;;;;10.50;5.50;;;4.90;99.90;;;;;;4974364;28;20366;-79
2022/09/23 05:28:31;;;;;;;8.43;4.97;;;4.90;99.90;;;;;;4991658;28;20498;-79
2022/09/23 05:31:03;;;;;;;8.93;4.97;;;5.00;99.90;;;;;;4974874;28;20069;-79
2022/09/23 05:33:31;;;;;;;5.80;4.55;;;5.10;99.90;;;;;;4992754;28;20038;-79
2022/09/23 05:35:57;;;;;;;7.55;4.72;;;5.00;99.90;;;;;;4956938;28;20402;-79
2022/09/23 05:38:24;;;;;;;6.38;4.55;;;5.00;99.90;;;;;;4992947;28;20038;-80
2022/09/23 05:40:57;;;;;;;7.90;5.55;;;5.00;99.90;;;;;;4994320;28;20443;-80
2022/09/23 05:43:24;;;;;;;8.75;5.45;;;5.20;99.90;;;;;;4977979;28;20030;-79
2022/09/23 05:45:51;;;;;;;6.25;4.78;;;5.40;99.90;;;;;;4996798;28;20041;-80
2022/09/23 05:48:17;;;;;;;7.85;4.38;;;5.50;99.90;;;;;;4995514;28;20034;-80
2022/09/23 05:50:51;;;;;;;7.15;5.00;;;5.60;99.90;;;;;;5008971;28;20034;-78
2022/09/23 05:53:18;;;;;;;7.28;4.97;;;5.60;99.90;;;;;;5010187;28;20143;-80
2022/09/23 05:55:44;;;;;;;8.23;4.07;;;5.70;99.90;;;;;;4978180;28;20110;-80
2022/09/23 05:58:11;;;;;;;6.88;3.90;;;5.80;99.90;;;;;;4995011;28;20030;-79
2022/09/23 06:00:39;;;;;;;6.55;4.32;;;6.10;99.90;;;;;;4993017;28;20053;-82
2022/09/23 06:03:11;;;;;;;6.80;4.03;;;6.20;99.90;;;;;;4996065;28;20046;-81
2022/09/23 06:05:38;;;;;;;8.00;4.95;;;6.30;99.90;;;;;;4994202;28;20030;-82
2022/09/23 06:08:04;;;;;;;6.05;4.47;;;6.40;99.90;;;;;;4963029;28;20047;-80
2022/09/23 06:10:38;;;;;;;8.13;5.03;;;6.60;99.90;;;;;;4979069;28;20389;-80
2022/09/23 06:13:05;;;;;;;7.55;4.75;;;6.80;99.90;;;;;;4996574;28;20042;-79
2022/09/23 06:15:31;;;;;;;6.10;4.60;;;7.00;99.90;;;;;;4995324;28;20098;-79
2022/09/23 06:17:58;;;;;;;8.63;5.10;;;7.20;99.90;;;;;;4978209;28;20100;-79
2022/09/23 06:20:25;;;;;;;5.60;3.75;;;7.30;99.90;;;;;;4977940;28;20050;-79
2022/09/23 06:22:52;;;;;;;6.20;4.85;;;7.30;99.90;;;;;;4978315;28;20046;-79
2022/09/23 06:25:19;;;;;;;5.43;4.10;;;7.40;99.90;;;;;;4977725;28;20042;-81
2022/09/23 06:27:55;;;;;;;4.70;3.72;;;7.70;99.90;;;;;;4978086;28;20065;-79
2022/09/23 06:30:23;;;;;;;5.82;3.80;;;8.00;99.90;;;;;;4995876;28;20057;-79
2022/09/23 06:32:51;;;;;;;5.65;4.18;;;8.20;99.90;;;;;;4993847;28;20038;-79
2022/09/23 06:35:22;;;;;;;4.72;3.80;;;8.30;99.90;;;;;;4977765;28;20035;-78
2022/09/23 06:37:48;;;;;;;6.47;4.20;;;8.40;99.90;;;;;;4977982;28;20079;-79
2022/09/23 06:40:15;;;;;;;5.55;4.28;;;8.50;99.90;;;;;;4978577;28;20046;-79
2022/09/23 06:42:41;;;;;;;6.70;3.90;;;8.60;99.90;;;;;;4996089;28;20390;-78
2022/09/23 06:45:11;;;;;;;6.88;3.78;;;8.50;99.90;;;;;;4977602;28;20030;-80
2022/09/23 06:47:38;;;;;;;6.25;4.25;;;8.40;99.90;;;;;;4978605;28;20058;-82
2022/09/23 06:50:05;;;;;;;6.55;4.68;;;8.30;99.90;;;;;;4980215;28;20047;-82
2022/09/23 06:52:31;;;;;;;7.90;4.55;;;8.40;99.90;;;;;;4998439;28;20042;-81
2022/09/23 06:54:59;;;;;;;5.03;3.97;;;8.50;99.90;;;;;;4977814;28;20030;-83
2022/09/23 06:57:29;;;;;;;6.43;4.15;;;8.70;99.90;;;;;;4996373;28;20034;-83
2022/09/23 06:59:57;;;;;;;7.72;4.43;;;8.80;99.90;;;;;;4995375;28;20030;-84
2022/09/23 07:02:27;;;;;;;6.00;3.97;;;9.00;99.90;;;;;;4996160;28;20395;-83
2022/09/23 07:04:56;;;;;;;6.00;4.53;;;9.00;99.90;;;;;;4995204;28;20368;-84
2022/09/23 07:07:22;;;;;;;11.55;5.50;;;9.00;99.90;;;;;;4995940;28;20045;-83
2022/09/23 07:09:49;;;;;;;7.35;4.82;;;9.10;99.90;;;;;;4976970;28;20038;-84
2022/09/23 07:12:15;;;;;;;6.05;4.85;;;9.10;99.90;;;;;;4978083;28;20043;-82
2022/09/23 07:14:41;;;;;;;6.07;5.00;;;9.00;99.90;;;;;;4976752;28;20041;-84
2022/09/23 07:17:07;;;;;;;11.75;5.55;;;9.20;99.90;;;;;;4960993;28;20046;-83
2022/09/23 07:19:34;;;;;;;6.03;4.85;;;9.30;99.90;;;;;;4977439;28;20038;-83
2022/09/23 07:22:00;;;;;;;9.70;4.82;;;9.50;99.90;;;;;;4995144;28;20038;-83
2022/09/23 07:24:26;;;;;;;6.78;4.80;;;9.70;99.90;;;;;;4977959;28;20049;-84
2022/09/23 07:26:54;;;;;;;5.88;4.53;;;9.90;99.90;;;;;;4977123;28;20487;-83
2022/09/23 07:29:20;;;;;;;9.73;4.97;;;10.10;99.90;;;;;;4995796;28;20034;-84
2022/09/23 07:31:46;;;;;;;7.32;4.97;;;10.10;99.90;;;;;;4977128;28;20398;-84
2022/09/23 07:34:13;;;;;;;7.88;4.35;;;10.20;99.90;;;;;;4994400;28;20411;-83
2022/09/23 07:36:39;;;;;;;6.93;4.38;;;10.30;99.90;;;;;;4977880;28;20041;-86
2022/09/23 07:39:08;;;;;;;9.25;4.78;;;10.20;99.90;;;;;;4982373;28;20038;-86
2022/09/23 07:41:34;;;;;;;5.85;4.38;;;10.30;99.90;;;;;;4998363;28;20467;-86
2022/09/23 07:44:01;;;;;;;6.97;4.05;;;10.40;99.90;;;;;;4978094;28;20086;-86
2022/09/23 07:46:30;;;;;;;6.68;4.68;;;10.40;99.90;;;;;;4977745;28;20053;-88
2022/09/23 07:48:57;;;;;;;5.68;4.45;;;10.60;99.90;;;;;;4978788;28;20073;-86
2022/09/23 07:51:27;;;;;;;5.78;4.35;;;10.60;99.90;;;;;;4977477;28;20034;-86
2022/09/23 07:53:54;;;;;;;5.10;4.35;;;10.70;99.90;;;;;;4975941;28;20042;-87
2022/09/23 07:56:24;;;;;;;8.52;4.63;;;11.30;99.90;;;;;;4961285;28;20479;-87
2022/09/23 07:58:59;;;;;;;6.40;4.17;;;11.30;99.90;;;;;;4977311;28;20042;-86
2022/09/23 08:01:30;;;;;;;5.35;3.40;;;11.70;99.90;;;;;;4976729;28;20487;-83
2022/09/23 08:03:58;;;;;;;6.97;3.33;;;11.70;99.90;;;;;;4993424;28;20038;-84
2022/09/23 08:06:25;;;;;;;4.63;3.22;;;11.90;99.90;;;;;;4977073;28;20049;-83
2022/09/23 08:08:51;;;;;;;6.18;3.90;;;12.40;99.90;;;;;;4976205;28;20038;-85
2022/09/23 08:11:17;;;;;;;8.95;4.15;;;12.60;99.90;;;;;;4976907;28;20030;-85
2022/09/23 08:13:43;;;;;;;8.45;3.53;;;12.40;99.90;;;;;;4993612;28;20030;-85
2022/09/23 08:16:10;;;;;;;6.65;3.88;;;12.30;99.90;;;;;;4976842;28;20034;-83
2022/09/23 08:18:36;;;;;;;5.80;3.50;;;12.10;99.90;;;;;;4977464;28;20395;-84
2022/09/23 08:21:03;;;;;;;6.03;4.32;;;12.30;99.90;;;;;;4976188;28;20038;-84
2022/09/23 08:23:32;;;;;;;11.23;4.38;;;12.00;99.90;;;;;;4995006;28;20050;-85
2022/09/23 08:26:01;;;;;;;7.03;5.13;;;12.10;99.90;;;;;;4975760;28;20030;-85
2022/09/23 08:28:27;;;;;;;8.05;5.22;;;12.50;99.90;;;;;;4975954;28;20400;-85
2022/09/23 08:30:54;;;;;;;6.35;4.68;;;13.30;99.90;;;;;;4976051;28;20479;-85
2022/09/23 08:33:21;;;;;;;7.53;4.53;;;14.10;99.90;;;;;;4976664;28;20391;-86
2022/09/23 08:35:47;;;;;;;5.80;4.25;;;14.00;99.90;;;;;;4974788;28;20038;-85
2022/09/23 08:38:13;;;;;;;9.68;4.47;;;13.90;99.90;;;;;;4976898;28;20034;-85
2022/09/23 08:40:42;;;;;;;7.32;4.28;;;14.00;99.90;;;;;;4976845;28;20030;-87
2022/09/23 08:43:27;;;;;;;7.90;5.22;;;14.10;99.90;;;;;;4976922;28;20471;-85
2022/09/23 08:45:56;;;;;;;8.27;5.03;;;14.10;99.90;;;;;;4977109;28;20053;-85
2022/09/23 08:48:33;;;;;;;6.15;4.53;;;14.80;99.90;;;;;;4994559;28;20030;-87
2022/09/23 08:51:11;;;;;;;7.88;4.70;;;14.90;99.90;;;;;;4973188;28;20048;-88
2022/09/23 08:53:37;;;;;;;9.80;4.82;;;15.10;97.80;;;;;;4983383;28;20402;-86
2022/09/23 08:56:18;;;;;;;6.78;4.00;;;14.60;98.70;;;;;;5004297;28;20034;-86
2022/09/23 08:59:06;;;;;;;5.28;3.97;;;15.00;97.90;;;;;;4982069;28;20042;-85
2022/09/23 09:01:43;;;;;;;12.52;4.25;;;15.00;96.80;;;;;;4981107;28;20054;-86
2022/09/23 09:04:26;;;;;;;4.50;3.17;;;15.60;94.00;;;;;;4976186;28;20053;-83
2022/09/23 09:07:08;;;;;;;6.70;3.30;;;16.10;91.90;;;;;;4986215;28;20053;-82
2022/09/23 09:09:42;;;;;;;5.70;3.70;;;16.50;90.70;;;;;;4988720;28;20050;-82
2022/09/23 09:12:31;;;;;;;6.65;3.72;;;16.80;86.70;;;;;;4997779;28;20038;-82
2022/09/23 09:15:01;;;;;;;6.22;3.67;;;16.80;83.40;;;;;;4982353;28;20042;-82
2022/09/23 09:17:37;;;;;;;4.55;3.65;;;16.40;86.60;;;;;;4976670;28;20034;-85
2022/09/23 09:20:28;;;;;;;8.38;3.72;;;16.40;86.70;;;;;;4975428;28;20035;-84
2022/09/23 09:22:58;;;;;;;7.28;4.53;;;16.80;86.30;;;;;;4975156;28;20046;-83
2022/09/23 09:25:43;;;;;;;;;;;16.50;85.40;;;;;;4972615;28;20034;-81
2022/09/23 09:28:18;;;;;;;6.72;3.78;;;16.60;87.40;;;;;;4993651;28;19910;-81
2022/09/23 09:30:47;;;;;;;6.13;3.92;;;16.90;83.80;;;;;;4992042;28;20030;-83
2022/09/23 09:33:17;;;;;;;6.97;4.05;;;17.20;83.70;;;;;;4993024;28;20049;-82
2022/09/23 09:36:11;;;;;;;6.20;3.80;;;17.40;81.80;;;;;;4984183;28;20030;-84
2022/09/23 09:38:38;;;;;;;6.05;4.00;;;17.70;80.70;;;;;;4987485;28;20034;-81
2022/09/23 09:41:16;;;;;;;8.20;5.78;;;17.60;79.90;;;;;;4974395;28;20041;-81
2022/09/23 09:43:55;;;;;;;9.02;5.07;;;16.90;81.80;;;;;;4974072;28;20054;-82
2022/09/23 09:47:00;;;;;;;7.65;4.07;;;16.60;83.70;;;;;;4974433;28;20045;-81
2022/09/23 09:49:37;;;;;;;6.10;3.75;;;16.50;84.10;;;;;;4935974;29;20550;-81
2022/09/23 09:52:22;;;;;;;10.98;3.53;;;16.30;84.30;;;;;;4970497;28;20368;-81
2022/09/23 09:54:52;;;;;;;8.65;4.10;;;16.30;83.40;;;;;;4975075;28;20387;-82
2022/09/23 09:57:35;;;;;;;6.72;3.60;;;16.30;84.40;;;;;;4973449;28;20042;-81
2022/09/23 10:00:20;;;;;;;7.22;3.47;;;16.40;85.60;;;;;;4986840;28;20047;-80
2022/09/23 10:02:58;;;;;;;7.50;3.35;;;16.70;85.10;;;;;;4992367;28;20053;-81
2022/09/23 10:05:26;;;;;;;5.25;4.20;;;16.60;81.70;;;;;;4992926;28;20469;-82
2022/09/23 10:07:53;;;;;;;4.53;2.70;;;16.70;81.70;;;;;;4973340;28;20122;-83
2022/09/23 10:10:23;;;;;;;3.70;2.28;;;16.60;82.10;;;;;;4975176;28;20030;-81
2022/09/23 10:12:51;;;;;;;6.57;2.63;;;16.70;83.00;;;;;;4991965;28;20053;-81
2022/09/23 10:15:33;;;;;;;2.95;1.65;;;16.80;82.50;;;;;;4975422;28;20026;-81
2022/09/23 10:18:00;;;;;;;3.60;2.08;;;16.50;82.30;;;;;;4990534;28;20038;-80
2022/09/23 10:20:37;;;;;;;4.03;2.15;;;16.60;79.50;;;;;;4992338;28;20047;-81
2022/09/23 10:23:08;;;;;;;4.35;2.15;;;16.60;78.50;;;;;;4965770;28;20035;-80
2022/09/23 10:25:35;;;;;;;3.95;1.73;;;16.60;78.40;;;;;;4985363;28;20042;-79
2022/09/23 10:28:31;;;;;;;2.85;1.77;;;16.70;80.30;;;;;;4990681;28;20027;-80
2022/09/23 10:31:24;;;;;;;4.97;2.05;;;16.80;76.20;;;;;;4991829;28;20418;-80
2022/09/23 10:33:58;;;;;;;5.65;2.10;;;17.10;78.40;;;;;;4986635;28;20042;-81
2022/09/23 10:36:26;;;;;;;5.78;1.90;;;17.00;75.30;;;;;;4991353;28;20042;-80
2022/09/23 10:48:14;;;;;;;5.57;2.30;;;17.40;73.90;;;;;;4990800;28;20038;-82
2022/09/23 10:50:47;;;;;;;7.80;1.83;;;17.20;73.80;;;;;;4991482;28;20038;-80
2022/09/23 10:53:31;;;;;;;5.22;1.63;;;17.50;75.10;;;;;;4995258;28;20038;-81
2022/09/23 10:56:16;;;;;;;3.08;1.40;;;17.70;73.70;;;;;;4976340;28;20043;-83
2022/09/23 10:59:13;;;;;;;7.18;2.22;;;17.80;72.50;;;;;;4982989;28;20090;-82
2022/09/23 11:02:07;;;;;;;3.40;2.28;;;17.90;71.60;;;;;;4996074;28;20054;-81
2022/09/23 11:04:44;;;;;;;4.50;1.88;;;17.60;72.30;;;;;;4996339;28;20054;-82
2022/09/23 11:07:22;;;;;;;2.88;1.17;;;17.50;72.50;;;;;;4994703;28;20141;-82
2022/09/23 11:10:03;;;;;;;4.20;1.75;;;17.70;73.10;;;;;;4995018;28;20035;-79
2022/09/23 11:12:35;;;;;;;3.13;1.63;;;18.00;72.00;;;;;;4995510;28;20034;-80
2022/09/23 11:15:25;;;;;;;5.97;1.85;;;18.00;71.20;;;;;;4977417;28;20046;-81
2022/09/23 11:18:10;;;;;;;4.05;2.38;;;18.00;71.40;;;;;;4951900;28;20065;-82
2022/09/23 11:20:55;;;;;;;4.28;1.75;;;18.20;70.70;;;;;;4995495;28;20042;-81
2022/09/23 11:23:48;;;;;;;3.05;1.52;;;18.20;70.30;;;;;;4995394;28;20042;-81
2022/09/23 11:26:27;;;;;;;4.88;2.42;;;18.60;71.40;;;;;;4994395;28;20041;-82
2022/09/23 11:29:12;;;;;;;3.25;1.80;;;18.40;69.90;;;;;;4994807;28;20030;-82
2022/09/23 11:32:21;;;;;;;4.63;1.95;;;18.40;69.40;;;;;;4995168;28;20039;-81
2022/09/23 11:35:19;;;;;;;3.33;1.95;;;18.50;70.80;;;;;;4925270;28;20063;-81
2022/09/23 11:37:59;;;;;;;2.83;1.70;;;18.70;69.10;;;;;;4994125;28;20602;-82
2022/09/23 11:40:35;;;;;;;2.65;1.55;;;19.00;68.50;;;;;;4995055;28;20038;-81
2022/09/23 11:43:16;;;;;;;4.90;1.80;;;19.00;68.20;;;;;;4995395;28;20050;-80
2022/09/23 11:45:54;;;;;;;2.83;1.60;;;18.60;69.40;;;;;;4994583;28;20041;-82
2022/09/23 11:48:34;;;;;;;2.80;1.55;;;18.70;69.80;;;;;;4977344;28;20379;-80
2022/09/23 11:51:23;;;;;;;4.13;1.75;;;18.90;68.80;;;;;;4977030;28;20518;-81
2022/09/23 11:54:03;;;;;;;2.92;1.75;;;18.90;68.40;;;;;;4994279;28;20034;-80
2022/09/23 11:56:37;;;;;;;2.63;1.48;;;19.10;69.00;;;;;;4993594;28;20034;-80
2022/09/23 11:59:50;;;;;;;4.78;2.08;;;18.80;68.70;;;;;;4994057;28;20471;-80
2022/09/23 12:02:20;;;;;;;5.63;2.05;;;19.00;68.10;;;;;;4994871;28;20038;-81
2022/09/23 12:04:56;;;;;;;4.32;1.70;;;18.70;68.00;;;;;;4993761;28;20482;-80
2022/09/23 12:07:55;;;;;;;4.03;2.03;;;18.80;69.30;;;;;;4993632;28;20490;-81
2022/09/23 12:10:26;;;;;;;2.97;1.50;;;19.00;70.00;;;;;;4976509;28;20042;-81
2022/09/23 12:13:19;;;;;;;4.32;1.83;;;19.00;69.20;;;;;;4994040;28;20042;-82
2022/09/23 12:16:02;;;;;;;4.10;2.38;;;19.10;67.60;;;;;;4989940;28;20053;-82
2022/09/23 12:19:07;;;;;;;4.13;2.20;;;19.00;66.60;;;;;;4994525;28;20034;-80
2022/09/23 12:22:01;;;;;;;3.50;1.70;;;18.60;68.00;;;;;;4991168;28;20057;-81
2022/09/23 12:24:30;;;;;;;3.08;1.92;;;18.80;69.40;;;;;;4976728;28;20487;-79
2022/09/23 12:27:00;;;;;;;3.60;1.70;;;19.40;66.00;;;;;;4993676;28;20034;-80
2022/09/23 12:29:29;;;;;;;3.90;1.67;;;19.30;67.40;;;;;;5007543;28;20030;-80
2022/09/23 12:31:55;;;;;;;4.15;2.28;;;19.40;65.00;;;;;;4986329;28;20034;-79
2022/09/23 12:34:32;;;;;;;3.95;2.10;;;19.10;66.30;;;;;;4994798;28;20038;-81
2022/09/23 12:37:03;;;;;;;4.50;2.65;;;19.50;68.80;;;;;;4974966;28;20042;-83
2022/09/23 12:39:33;;;;;;;2.97;1.73;;;19.80;68.80;;;;;;4976762;28;20034;-83
2022/09/23 12:42:02;;;;;;;3.78;1.73;;;19.90;66.00;;;;;;4970812;28;20031;-82
2022/09/23 12:44:36;;;;;;;2.65;1.33;;;19.50;64.50;;;;;;4988757;28;20049;-80
2022/09/23 12:47:35;;;;;;;2.65;1.40;;;18.90;65.80;;;;;;4987150;28;20049;-80
2022/09/23 12:50:01;;;;;;;3.33;2.35;;;19.00;67.00;;;;;;4981786;28;20047;-82
2022/09/23 12:52:31;;;;;;;5.47;2.00;;;19.10;67.00;;;;;;5001793;28;20053;-81
2022/09/23 12:55:17;;;;;;;5.40;2.60;;;19.00;66.70;;;;;;4997795;28;20035;-80
2022/09/23 12:57:43;;;;;;;4.18;1.67;;;18.90;66.50;;;;;;4999836;28;20026;-81
2022/09/23 13:00:13;;;;;;;2.83;1.88;;;19.30;68.40;;;;;;4997917;28;20057;-81
2022/09/23 13:02:45;;;;;;;3.92;1.70;;;19.90;67.00;;;;;;5000639;28;20035;-79
2022/09/23 13:08:25;;;;;;;5.50;1.98;;;20.10;64.60;;;;;;4988669;28;20387;-78
2022/09/23 13:10:56;;;;;;;3.67;1.88;;;20.40;64.90;;;;;;4974812;28;20026;-81
2022/09/23 13:13:32;;;;;;;3.63;1.88;;;20.20;61.90;;;;;;4983800;28;20046;-80
2022/09/23 13:16:48;;;;;;;2.97;1.45;;;20.20;61.80;;;;;;4986400;28;20042;-78
2022/09/23 13:19:26;;;;;;;2.17;1.33;;;20.30;62.20;;;;;;4963759;28;20054;-79
2022/09/23 13:21:53;;;;;;;3.55;1.55;;;20.60;62.60;;;;;;4985579;28;20031;-81
2022/09/23 13:24:22;;;;;;;5.13;2.00;;;20.80;63.60;;;;;;4993688;28;20041;-78
2022/09/23 13:26:51;;;;;;;3.65;1.45;;;20.90;64.50;;;;;;4995297;28;20402;-79
2022/09/23 13:29:54;;;;;;;3.23;1.60;;;20.80;61.70;;;;;;4979377;28;20030;-80
2022/09/23 13:32:25;;;;;;;2.58;1.52;;;20.30;61.70;;;;;;4975334;28;20758;-80
2022/09/23 13:34:57;;;;;;;2.25;1.33;;;20.10;61.90;;;;;;4992905;28;20053;-80
2022/09/23 13:37:29;;;;;;;2.55;1.55;;;19.80;63.10;;;;;;4987559;28;20030;-80
2022/09/23 13:40:07;;;;;;;6.85;1.48;;;19.60;63.80;;;;;;4974786;28;20042;-80
2022/09/23 13:42:38;;;;;;;2.17;1.00;;;19.40;64.20;;;;;;4992935;28;20042;-79
2022/09/23 13:45:12;;;;;;;3.55;1.88;;;19.40;67.30;;;;;;4992607;28;20046;-80